香港国際空港 の過去48時間の天気

香港国際空港 (Hong Kong Inter-National Airport)

現在時刻: 9/16 11:07 HKT (9/16 03:07 UTC) 以下の時間は現地時間です。

過去48時間のMETAR気象情報
時間 風向 風速(m/s) 視程 気温(℃) 湿度(%) 気圧(hPa) 天気現象
16 11:00 北北西 2 10km以上 30 75 1008
16 10:30 2 10km以上 29 79 1009
16 10:00 北北西 3 10km以上 29 79 1009
16 09:30 北北西 3 10km以上 29 79 1009
16 09:00 北北西 4 10km以上 29 84 1009
16 08:30 北北西 3 10km以上 28 84 1009
16 08:00 北北西 4 10km以上 28 84 1009
16 07:30 4 10km以上 28 84 1009
16 07:00 北北西 4 10km以上 28 84 1009
16 06:30 北北東 3 10km以上 28 84 1009
16 06:00 東北東 3 10km以上 27 89 1008
16 05:30 3 10km以上 27 89 1008
16 05:00 3 10km以上 27 84 1007
16 04:30 東南東 2 10km以上 27 89 1007
16 04:00 東南東 2 10km以上 27 84 1007
16 03:45 南東 3 7000m 26 94 1007
16 03:30 東南東 6 3300m 26 94 1007 強い雷雨
16 03:21 7 4800m 26 94 1007 強い雷雨
16 03:00 南東 2 10km以上 29 74 1007
16 02:51 2 10km以上 29 74 1007
16 02:30 不定 1 10km以上 29 70 1007
16 02:00 西 2 10km以上 29 70 1007
16 01:30 不定 1 10km以上 29 70 1007
16 01:00 不定 1 10km以上 30 70 1008
16 00:30 不定 1 10km以上 29 74 1008
16 00:00 不定 2 10km以上 30 70 1008
15 23:30 北東 2 10km以上 29 70 1008
15 23:00 北東 2 10km以上 29 70 1008
15 22:30 2 10km以上 29 70 1008
15 22:00 不定 2 10km以上 29 70 1008
15 21:30 不定 1 10km以上 29 70 1008
15 21:00 西 2 10km以上 30 59 1008
15 20:30 南南東 2 10km以上 30 59 1007
15 20:00 南南東 4 10km以上 30 55 1007
15 19:30 南東 3 10km以上 30 59 1007
15 19:00 南東 3 10km以上 30 70 1007
15 18:30 東北東 2 10km以上 30 70 1006
15 18:00 西 3 10km以上 31 66 1006
15 17:30 西 3 10km以上 31 70 1006
15 17:00 西 4 10km以上 31 66 1006
15 16:30 西 5 10km以上 32 63 1006
15 16:00 西 5 10km以上 32 59 1006
15 15:30 西 5 10km以上 32 59 1006
15 15:00 西 5 10km以上 32 59 1006
15 14:30 西 5 10km以上 32 63 1006
15 14:15 西南西 5 10km以上 32 63 1007
15 14:00 不定 2 10km以上 32 63 1007
15 13:30 北東 3 10km以上 32 59 1007
15 13:00 4 10km以上 33 56 1008
15 12:30 北東 3 10km以上 32 59 1008
15 12:00 北東 3 10km以上 31 62 1009
15 11:30 北東 4 10km以上 31 62 1009
15 11:00 5 10km以上 30 66 1010
15 10:30 北東 3 10km以上 30 66 1010
15 10:00 4 10km以上 29 70 1010
15 09:30 5 10km以上 28 74 1010
15 09:00 6 10km以上 29 70 1010
15 08:30 東北東 4 10km以上 30 75 1010
15 08:00 東北東 2 10km以上 30 75 1009
15 07:30 北東 2 10km以上 29 74 1009
15 07:00 東北東 2 10km以上 28 84 1009
15 06:30 東南東 2 10km以上 28 79 1008
15 06:00 南東 3 10km以上 28 79 1008
15 05:30 東北東 2 10km以上 28 79 1008
15 05:00 南西 1 10km以上 29 79 1008
15 04:30 不定 1 10km以上 28 79 1008
15 04:00 不定 1 10km以上 29 79 1008
15 03:30 2 10km以上 28 84 1008
VHHH 160300Z 34004KT 290V020 9999 FEW015 30/25 Q1008 NOSIG
VHHH 160230Z 36003KT 320V040 9999 FEW012 29/25 Q1009 NOSIG
VHHH 160200Z 34005KT 9999 FEW012 29/25 Q1009 NOSIG
VHHH 160130Z 33006KT 9999 FEW012 29/25 Q1009 NOSIG
VHHH 160100Z 33007KT 9999 FEW012 SCT025 29/26 Q1009 NOSIG
VHHH 160030Z 34006KT 9999 FEW012 SCT028 28/25 Q1009 NOSIG
VHHH 160000Z 34007KT 9999 FEW012 SCT030 28/25 Q1009 NOSIG
VHHH 152330Z 35007KT 9999 FEW015 SCT030 28/25 Q1009 NOSIG
VHHH 152300Z 34008KT 9999 FEW018 28/25 Q1009 NOSIG
VHHH 152230Z 03005KT 010V070 9999 FEW025 SCT045 28/25 Q1009 NOSIG
VHHH 152200Z 07005KT 9999 FEW025 27/25 Q1008 NOSIG
VHHH 152130Z 08006KT 9999 FEW025 SCT045 27/25 Q1008 NOSIG
VHHH 152100Z 09006KT 9999 FEW025 SCT045 27/24 Q1007 NOSIG
VHHH 152030Z 12003KT 070V160 9999 FEW025 SCT045 27/25 Q1007 NOSIG
VHHH 152000Z 11004KT 090V150 9999 FEW025 SCT045 27/24 Q1007 NOSIG
VHHH 151945Z 13006KT 7000 FEW010 FEW015CB SCT030 26/25 Q1007 RETS RERA NOSIG
VHHH 151930Z 12011KT 090V150 3300 +TSRA FEW010 FEW015CB SCT030 26/25 Q1007 TEMPO 3500 SHRA FEW010CB SCT020
VHHH 151921Z 10013KT 4800 +TSRA FEW010 FEW015CB SCT030 26/25 Q1007 TEMPO 3500 SHRA FEW010CB SCT020
VHHH 151900Z 14003KT 110V170 9999 TS FEW010 FEW015CB SCT032 29/24 Q1007 TEMPO 3500 -TSRA SHRA FEW010CB SCT020
VHHH 151851Z 17003KT 150V210 9999 TS FEW015CB SCT032 29/24 Q1007 TEMPO 3500 -TSRA SHRA FEW010CB SCT020
VHHH 151830Z VRB02KT 9999 SCT032 29/23 Q1007 TEMPO 3500 -TSRA SHRA FEW010CB SCT020
VHHH 151800Z 26003KT 9999 FEW032 29/23 Q1007 TEMPO 3500 -TSRA SHRA FEW010CB SCT020
VHHH 151730Z VRB02KT 9999 FEW035 29/23 Q1007 TEMPO 4000 SHRA
VHHH 151700Z VRB02KT 9999 FEW035 30/24 Q1008 TEMPO 4000 SHRA
VHHH 151630Z VRB02KT 9999 FEW035 29/24 Q1008 NOSIG
VHHH 151600Z VRB03KT 010V070 9999 FEW035 30/24 Q1008 NOSIG
VHHH 151530Z 04004KT 9999 FEW035 29/23 Q1008 NOSIG
VHHH 151500Z 05003KT 020V080 9999 FEW035 29/23 Q1008 NOSIG
VHHH 151430Z 18004KT 160V230 9999 FEW035 29/23 Q1008 NOSIG
VHHH 151400Z VRB03KT 9999 FEW035 29/23 Q1008 NOSIG
VHHH 151330Z VRB02KT 9999 FEW035 29/23 Q1008 NOSIG
VHHH 151300Z 27003KT 9999 FEW035 30/21 Q1008 NOSIG
VHHH 151230Z 15004KT 110V220 9999 FEW035 30/21 Q1007 NOSIG
VHHH 151200Z 15007KT 130V200 9999 FEW035 30/20 Q1007 NOSIG
VHHH 151130Z 13006KT 9999 FEW035 30/21 Q1007 NOSIG
VHHH 151100Z 14005KT 100V200 9999 FEW035 30/24 Q1007 NOSIG
VHHH 151030Z 07004KT 360V140 9999 FEW030 30/24 Q1006 NOSIG
VHHH 151000Z 26005KT 9999 FEW030 31/24 Q1006 NOSIG
VHHH 150930Z 26006KT 9999 FEW030 31/25 Q1006 NOSIG
VHHH 150900Z 27007KT 9999 FEW028 31/24 Q1006 NOSIG
VHHH 150830Z 26009KT 9999 FEW025 32/24 Q1006 NOSIG
VHHH 150800Z 26009KT 9999 FEW025 32/23 Q1006 NOSIG
VHHH 150730Z 26010KT 9999 FEW020 32/23 Q1006 NOSIG
VHHH 150700Z 26009KT 9999 FEW030 32/23 Q1006 NOSIG
VHHH 150630Z 26010KT 9999 FEW035 32/24 Q1006 NOSIG
VHHH 150615Z 25009KT 9999 FEW035 32/24 Q1007 NOSIG
VHHH 150600Z VRB04KT 9999 FEW035 32/24 Q1007 BECMG 24010KT
VHHH 150530Z 05005KT 9999 FEW035 32/23 Q1007 NOSIG
VHHH 150500Z 09007KT 030V160 9999 FEW030 33/23 Q1008 NOSIG
VHHH 150430Z 05006KT 9999 FEW025 32/23 Q1008 NOSIG
VHHH 150400Z 04006KT 9999 FEW025 31/23 Q1009 NOSIG
VHHH 150330Z 05007KT 030V090 9999 FEW025 31/23 Q1009 NOSIG
VHHH 150300Z 08009KT 050V120 9999 FEW035 30/23 Q1010 NOSIG
VHHH 150230Z 05006KT 9999 FEW022 30/23 Q1010 NOSIG
VHHH 150200Z 08008KT 060V120 9999 FEW022 29/23 Q1010 NOSIG
VHHH 150130Z 09010KT 9999 FEW022 28/23 Q1010 NOSIG
VHHH 150100Z 09012KT 9999 FEW022 29/23 Q1010 TEMPO 4000 SHRA
VHHH 150030Z 06008KT 9999 FEW022 30/25 Q1010 TEMPO 4000 SHRA
VHHH 150000Z 06003KT 9999 FEW028 30/25 Q1009 NOSIG
VHHH 142330Z 05004KT 9999 FEW030 29/24 Q1009 NOSIG
VHHH 142300Z 06004KT 9999 FEW030 28/25 Q1009 NOSIG
VHHH 142230Z 11004KT 9999 FEW030 28/24 Q1008 TEMPO 3000 -TSRA FEW012CB SCT025
VHHH 142200Z 13005KT 9999 FEW040 28/24 Q1008 TEMPO 3000 -TSRA FEW012CB SCT025
VHHH 142130Z 06003KT 9999 FEW022 28/24 Q1008 NOSIG
VHHH 142100Z 23002KT 9999 FEW022 29/25 Q1008 NOSIG
VHHH 142030Z VRB02KT 9999 FEW022 28/24 Q1008 NOSIG
VHHH 142000Z VRB02KT 9999 FEW022 29/25 Q1008 NOSIG
VHHH 141930Z 01003KT 9999 FEW030 28/25 Q1008 NOSIG